Terminal Aerodrome Forecast
Issued by NWS Kansas City/Pleasant Hill, MO

Home | Current Version | Previous Version | Text Only | Print | Product List | Glossary On
Versions: 1 2 3 4 5 6 7 8 9 10 11 12 13 14 15 16
000
FTUS43 KEAX 241700
TAFMCI
TAF
KMCI 241722Z 2418/2518 18010KT P6SM SHRA VCTS OVC050CB
     FM241900 33012KT P6SM OVC060
     FM242200 29005KT P6SM SKC
     FM251600 23015KT P6SM FEW250=

USA.gov is the U.S. government's official web portal to all federal, state and local government web resources and services.